Time;durP1;ratioP1;P1;durP2;ratioP2;P2;SDS_P1;SDS_P2;PMS_P1;PMS_P2;Temp;Humidity;BMP_temperature;BMP_pressure;BME280_temperature;BME280_humidity;BME280_pressure;Samples;Min_cycle;Max_cycle;Signal;HPM_P1;HPM_P2
2022/04/01 00:00:10;;;;;;;;;;;;;;;;;;1903789;28;7055;-67
2022/04/01 00:01:08;;;;;;;;;;;;;;;;;;1904170;28;7017;-69
2022/04/01 00:02:06;;;;;;;;;;;;;;;;;;1904450;28;7164;-68
2022/04/01 00:03:04;;;;;;;;;;;;;;;;;;1904572;28;8043;-68
2022/04/01 00:04:02;;;;;;;;;;;;;;;;;;1903739;28;7002;-68
2022/04/01 00:04:59;;;;;;;;;;;;;;;;;;1904042;28;7092;-68
2022/04/01 00:05:56;;;;;;;;;;;;;;;;;;1903528;28;7010;-66
2022/04/01 00:06:54;;;;;;;;;;;;;;;;;;1904054;28;7017;-69
2022/04/01 00:07:51;;;;;;;;;;;;;;;;;;1904075;28;8046;-67
2022/04/01 00:08:49;;;;;;;;;;;;;;;;;;1902827;28;7053;-67
2022/04/01 00:09:46;;;;;;;;;;;;;;;;;;1904418;28;8449;-67
2022/04/01 00:10:44;;;;;;;;;;;;;;;;;;1904095;28;7006;-69
2022/04/01 00:11:41;;;;;;;;;;;;;;;;;;1904375;28;7158;-66
2022/04/01 00:12:43;;;;;;;;;;;;;;;;;;1903032;28;7005;-68
2022/04/01 00:13:40;;;;;;;;;;;;;;;;;;1902298;28;7061;-68
2022/04/01 00:14:38;;;;;;;;;;;;;;;;;;1903849;28;8543;-68
2022/04/01 00:15:35;;;;;;;;;;;;;;;;;;1902449;28;7038;-69
2022/04/01 00:16:33;;;;;;;;;;;;;;;;;;1903552;28;8039;-68
2022/04/01 00:17:30;;;;;;;;;;;;;;;;;;1898364;28;7005;-67
2022/04/01 00:18:28;;;;;;;;;;;;;;;;;;1901582;28;7159;-69
2022/04/01 00:19:26;;;;;;;;;;;;;;;;;;1902531;28;7009;-69
2022/04/01 00:20:23;;;;;;;;;;;;;;;;;;1903145;28;7038;-68
2022/04/01 00:21:21;;;;;;;;;;;;;;;;;;1903920;28;8532;-68
2022/04/01 00:22:19;;;;;;;;;;;;;;;;;;1904521;28;7522;-67
2022/04/01 00:23:16;;;;;;;;;;;;;;;;;;1903203;28;7113;-70
2022/04/01 00:24:14;;;;;;;;;;;;;;;;;;1904415;28;7010;-68
2022/04/01 00:25:12;;;;;;;;;;;;;;;;;;1904007;28;7006;-68
2022/04/01 00:26:09;;;;;;;;;;;;;;;;;;1903980;28;7097;-70
2022/04/01 00:27:07;;;;;;;;;;;;;;;;;;1903645;28;7010;-67
2022/04/01 00:28:05;;;;;;;;;;;;;;;;;;1903882;28;7006;-69
2022/04/01 00:29:14;;;;;;;;;;;;;;;;;;1903711;28;7018;-68
2022/04/01 00:30:12;;;;;;;;;;;;;;;;;;1904014;28;7143;-69
2022/04/01 00:31:09;;;;;;;;;;;;;;;;;;1903989;28;7042;-69
2022/04/01 00:32:07;;;;;;;;;;;;;;;;;;1904561;28;7117;-70
2022/04/01 00:33:08;;;;;;;;;;;;;;;;;;1904268;28;7009;-68
2022/04/01 00:34:17;;;;;;;;;;;;;;;;;;1904090;28;7013;-69
2022/04/01 00:35:15;;;;;;;;;;;;;;;;;;1903835;28;7010;-66
2022/04/01 00:36:13;;;;;;;;;;;;;;;;;;1904333;28;7010;-68
2022/04/01 00:37:11;;;;;;;;;;;;;;;;;;1904164;28;7125;-66
2022/04/01 00:38:08;;;;;;;;;;;;;;;;;;1904264;28;7046;-69
2022/04/01 00:39:06;;;;;;;;;;;;;;;;;;1904069;28;7025;-68
2022/04/01 00:40:04;;;;;;;;;;;;;;;;;;1904096;28;7120;-70
2022/04/01 00:41:01;;;;;;;;;;;;;;;;;;1904275;28;7477;-67
2022/04/01 00:42:00;;;;;;;;;;;;;;;;;;1903763;28;8078;-67
2022/04/01 00:42:58;;;;;;;;;;;;;;;;;;1904408;28;7009;-70
2022/04/01 00:44:14;;;;;;;;;;;;;;;;;;1903968;28;8108;-69
2022/04/01 00:45:11;;;;;;;;;;;;;;;;;;1902661;28;7046;-67
2022/04/01 00:46:09;;;;;;;;;;;;;;;;;;1903566;28;8099;-68
2022/04/01 00:47:11;;;;;;;;;;;;;;;;;;1903101;28;7331;-68
2022/04/01 00:48:08;;;;;;;;;;;;;;;;;;1903216;28;7010;-68
2022/04/01 00:49:06;;;;;;;;;;;;;;;;;;1903767;28;7092;-69
2022/04/01 00:50:05;;;;;;;;;;;;;;;;;;1903043;28;8026;-67
2022/04/01 00:51:02;;;;;;;;;;;;;;;;;;1904422;28;7153;-69
2022/04/01 00:52:19;;;;;;;;;;;;;;;;;;1896415;28;7057;-67
2022/04/01 00:53:18;;;;;;;;;;;;;;;;;;1902911;28;7204;-69
2022/04/01 00:54:16;;;;;;;;;;;;;;;;;;1903691;28;7013;-67
2022/04/01 00:55:14;;;;;;;;;;;;;;;;;;1903803;28;7121;-68
2022/04/01 00:56:11;;;;;;;;;;;;;;;;;;1903899;28;7092;-68
2022/04/01 00:57:11;;;;;;;;;;;;;;;;;;1904457;28;7959;-69
2022/04/01 00:58:09;;;;;;;;;;;;;;;;;;1903629;28;7018;-67
2022/04/01 00:59:08;;;;;;;;;;;;;;;;;;1903909;28;7009;-70
2022/04/01 01:00:06;;;;;;;;;;;;;;;;;;1904358;28;8055;-69
2022/04/01 01:01:08;;;;;;;;;;;;;;;;;;1904425;28;7193;-69
2022/04/01 01:02:08;;;;;;;;;;;;;;;;;;1903837;28;7006;-68
2022/04/01 01:03:07;;;;;;;;;;;;;;;;;;1904187;28;7014;-68
2022/04/01 01:04:07;;;;;;;;;;;;;;;;;;1903917;28;7009;-66
2022/04/01 01:05:04;;;;;;;;;;;;;;;;;;1903469;28;7002;-68
2022/04/01 01:06:02;;;;;;;;;;;;;;;;;;1902857;28;7034;-69
2022/04/01 01:07:00;;;;;;;;;;;;;;;;;;1903603;28;7320;-69
2022/04/01 01:08:04;;;;;;;;;;;;;;;;;;1904058;28;7017;-68
2022/04/01 01:09:02;;;;;;;;;;;;;;;;;;1903745;28;7033;-70
2022/04/01 01:09:59;;;;;;;;;;;;;;;;;;1903806;28;7014;-68
2022/04/01 01:10:57;;;;;;;;;;;;;;;;;;1903544;28;7010;-67
2022/04/01 01:11:54;;;;;;;;;;;;;;;;;;1895520;28;7006;-69
2022/04/01 01:12:52;;;;;;;;;;;;;;;;;;1895816;28;7009;-67
2022/04/01 01:13:49;;;;;;;;;;;;;;;;;;1902463;28;7044;-68
2022/04/01 01:14:47;;;;;;;;;;;;;;;;;;1903582;28;7010;-68
2022/04/01 01:15:45;;;;;;;;;;;;;;;;;;1904231;28;7174;-67
2022/04/01 01:16:47;;;;;;;;;;;;;;;;;;1903332;28;7049;-68
2022/04/01 01:17:45;;;;;;;;;;;;;;;;;;1903350;28;8024;-67
2022/04/01 01:18:43;;;;;;;;;;;;;;;;;;1904324;28;7009;-68
2022/04/01 01:19:41;;;;;;;;;;;;;;;;;;1903379;28;7005;-67
2022/04/01 01:20:39;;;;;;;;;;;;;;;;;;1903731;28;7001;-67
2022/04/01 01:21:37;;;;;;;;;;;;;;;;;;1903519;28;7113;-70
2022/04/01 01:22:35;;;;;;;;;;;;;;;;;;1904034;28;7175;-68
2022/04/01 01:23:32;;;;;;;;;;;;;;;;;;1902975;28;7010;-68
2022/04/01 01:24:37;;;;;;;;;;;;;;;;;;1903682;28;7085;-68
2022/04/01 01:25:36;;;;;;;;;;;;;;;;;;1904091;28;7101;-67
2022/04/01 01:26:35;;;;;;;;;;;;;;;;;;1907578;28;7034;-68
2022/04/01 01:27:32;;;;;;;;;;;;;;;;;;1910766;28;7116;-70
2022/04/01 01:28:30;;;;;;;;;;;;;;;;;;1905865;28;7119;-68
2022/04/01 01:29:31;;;;;;;;;;;;;;;;;;1905230;28;8027;-67
2022/04/01 01:30:28;;;;;;;;;;;;;;;;;;1905277;28;7308;-69
2022/04/01 01:31:26;;;;;;;;;;;;;;;;;;1905293;28;7096;-68
2022/04/01 01:32:24;;;;;;;;;;;;;;;;;;1903906;28;7093;-68
2022/04/01 01:33:24;;;;;;;;;;;;;;;;;;1903739;28;7014;-69
2022/04/01 01:34:23;;;;;;;;;;;;;;;;;;1905194;28;7021;-68
2022/04/01 01:35:20;;;;;;;;;;;;;;;;;;1905295;28;7311;-69
2022/04/01 01:36:18;;;;;;;;;;;;;;;;;;1904993;28;7010;-67
2022/04/01 01:37:15;;;;;;;;;;;;;;;;;;1904820;28;7063;-69
2022/04/01 01:38:19;;;;;;;;;;;;;;;;;;1906293;28;7212;-68
2022/04/01 01:39:17;;;;;;;;;;;;;;;;;;1912276;28;7113;-69
2022/04/01 01:40:15;;;;;;;;;;;;;;;;;;1905104;28;7005;-67
2022/04/01 01:41:12;;;;;;;;;;;;;;;;;;1904889;28;7388;-69
2022/04/01 01:42:10;;;;;;;;;;;;;;;;;;1905300;28;7336;-70
2022/04/01 01:43:08;;;;;;;;;;;;;;;;;;1904817;28;7002;-70
2022/04/01 01:44:05;;;;;;;;;;;;;;;;;;1904338;28;7096;-69
2022/04/01 01:45:05;;;;;;;;;;;;;;;;;;1905520;28;7010;-67
2022/04/01 01:46:02;;;;;;;;;;;;;;;;;;1905285;28;7280;-67
2022/04/01 01:47:00;;;;;;;;;;;;;;;;;;1905757;28;7010;-68
2022/04/01 01:47:58;;;;;;;;;;;;;;;;;;1905465;28;7042;-67
2022/04/01 01:48:55;;;;;;;;;;;;;;;;;;1905075;28;7100;-69
2022/04/01 01:54:56;;;;;;;;;;;;;;;;;;1904574;28;7097;-67
2022/04/01 01:55:53;;;;;;;;;;;;;;;;;;1904517;28;7041;-69
2022/04/01 01:56:51;;;;;;;;;;;;;;;;;;1904695;28;7014;-69
2022/04/01 01:57:49;;;;;;;;;;;;;;;;;;1904777;28;7013;-69
2022/04/01 01:58:46;;;;;;;;;;;;;;;;;;1905022;28;7228;-66
2022/04/01 01:59:44;;;;;;;;;;;;;;;;;;1903791;28;7218;-68
2022/04/01 02:00:42;;;;;;;;;;;;;;;;;;1904682;28;7070;-68
2022/04/01 02:01:41;;;;;;;;;;;;;;;;;;1904844;28;8227;-69
2022/04/01 02:02:39;;;;;;;;;;;;;;;;;;1905086;28;8040;-68
2022/04/01 02:03:37;;;;;;;;;;;;;;;;;;1905234;28;7466;-66
2022/04/01 02:04:35;;;;;;;;;;;;;;;;;;1904927;28;7041;-69
2022/04/01 02:05:34;;;;;;;;;;;;;;;;;;1904864;28;8103;-67
2022/04/01 02:06:33;;;;;;;;;;;;;;;;;;1896606;28;7089;-69
2022/04/01 02:07:30;;;;;;;;;;;;;;;;;;1896698;28;7070;-69
2022/04/01 02:08:28;;;;;;;;;;;;;;;;;;1903809;28;7038;-70
2022/04/01 02:09:26;;;;;;;;;;;;;;;;;;1904482;28;7009;-69
2022/04/01 02:10:23;;;;;;;;;;;;;;;;;;1905375;28;7332;-69
2022/04/01 02:11:21;;;;;;;;;;;;;;;;;;1903975;28;7038;-68
2022/04/01 02:12:19;;;;;;;;;;;;;;;;;;1904725;28;7001;-68
2022/04/01 02:13:17;;;;;;;;;;;;;;;;;;1904838;28;7018;-69
2022/04/01 02:14:14;;;;;;;;;;;;;;;;;;1904703;28;7017;-67
2022/04/01 02:15:12;;;;;;;;;;;;;;;;;;1904976;28;7121;-67
2022/04/01 02:16:09;;;;;;;;;;;;;;;;;;1904733;28;8141;-67
2022/04/01 02:17:07;;;;;;;;;;;;;;;;;;1904943;28;7120;-67
2022/04/01 02:18:05;;;;;;;;;;;;;;;;;;1904893;28;7050;-70
2022/04/01 02:19:02;;;;;;;;;;;;;;;;;;1903622;28;7005;-70
2022/04/01 02:19:59;;;;;;;;;;;;;;;;;;1904573;28;7005;-70
2022/04/01 02:20:57;;;;;;;;;;;;;;;;;;1905117;28;7005;-69
2022/04/01 02:21:54;;;;;;;;;;;;;;;;;;1904661;28;7042;-68
2022/04/01 02:22:53;;;;;;;;;;;;;;;;;;1904448;28;7021;-69
2022/04/01 02:23:51;;;;;;;;;;;;;;;;;;1905120;28;7316;-68
2022/04/01 02:24:50;;;;;;;;;;;;;;;;;;1905230;28;7093;-67
2022/04/01 02:25:48;;;;;;;;;;;;;;;;;;1904732;28;7006;-66
2022/04/01 02:26:47;;;;;;;;;;;;;;;;;;1905482;28;7014;-66
2022/04/01 02:27:45;;;;;;;;;;;;;;;;;;1904429;28;7103;-70
2022/04/01 02:28:42;;;;;;;;;;;;;;;;;;1904979;28;7120;-68
2022/04/01 02:29:39;;;;;;;;;;;;;;;;;;1904426;28;7112;-66
2022/04/01 02:30:37;;;;;;;;;;;;;;;;;;1904775;28;7006;-69
2022/04/01 02:31:34;;;;;;;;;;;;;;;;;;1904721;28;7100;-67
2022/04/01 02:32:32;;;;;;;;;;;;;;;;;;1904449;28;7108;-68
2022/04/01 02:33:29;;;;;;;;;;;;;;;;;;1904934;28;7001;-68
2022/04/01 02:34:27;;;;;;;;;;;;;;;;;;1904220;28;7009;-68
2022/04/01 02:35:25;;;;;;;;;;;;;;;;;;1904655;28;7038;-70
2022/04/01 02:36:22;;;;;;;;;;;;;;;;;;1904570;28;7480;-71
2022/04/01 02:37:21;;;;;;;;;;;;;;;;;;1903368;28;7005;-67
2022/04/01 02:38:18;;;;;;;;;;;;;;;;;;1904545;28;7092;-69
2022/04/01 02:39:16;;;;;;;;;;;;;;;;;;1904134;28;7005;-69
2022/04/01 02:40:13;;;;;;;;;;;;;;;;;;1904074;28;7009;-67
2022/04/01 02:41:14;;;;;;;;;;;;;;;;;;1904906;28;7149;-67
2022/04/01 02:42:11;;;;;;;;;;;;;;;;;;1905046;28;7009;-66
2022/04/01 02:43:14;;;;;;;;;;;;;;;;;;1904112;28;7239;-69
2022/04/01 02:44:12;;;;;;;;;;;;;;;;;;1903916;28;8292;-69
2022/04/01 02:45:10;;;;;;;;;;;;;;;;;;1904128;28;7009;-67
2022/04/01 02:46:10;;;;;;;;;;;;;;;;;;1903444;28;7046;-68
2022/04/01 02:47:09;;;;;;;;;;;;;;;;;;1903766;28;7241;-68
2022/04/01 02:48:06;;;;;;;;;;;;;;;;;;1904317;28;7146;-69
2022/04/01 02:49:06;;;;;;;;;;;;;;;;;;1905559;28;7092;-66
2022/04/01 02:50:05;;;;;;;;;;;;;;;;;;1904375;28;7041;-69
2022/04/01 02:51:05;;;;;;;;;;;;;;;;;;1904587;28;7009;-69
2022/04/01 02:52:03;;;;;;;;;;;;;;;;;;1903378;28;7009;-69
2022/04/01 02:53:01;;;;;;;;;;;;;;;;;;1904652;28;7132;-69
2022/04/01 02:53:58;;;;;;;;;;;;;;;;;;1905044;28;7006;-68
2022/04/01 02:54:56;;;;;;;;;;;;;;;;;;1904304;28;7124;-69
2022/04/01 02:55:54;;;;;;;;;;;;;;;;;;1904672;28;7092;-67
2022/04/01 02:56:52;;;;;;;;;;;;;;;;;;1904149;28;7117;-67
2022/04/01 02:57:49;;;;;;;;;;;;;;;;;;1904520;28;8035;-68
2022/04/01 02:58:49;;;;;;;;;;;;;;;;;;1904480;28;7006;-69
2022/04/01 02:59:47;;;;;;;;;;;;;;;;;;1904280;28;7969;-68
2022/04/01 03:00:45;;;;;;;;;;;;;;;;;;1904868;28;7158;-67
2022/04/01 03:01:43;;;;;;;;;;;;;;;;;;1904818;28;7120;-66
2022/04/01 03:02:41;;;;;;;;;;;;;;;;;;1904960;28;7034;-69
2022/04/01 03:03:38;;;;;;;;;;;;;;;;;;1904857;28;7109;-69
2022/04/01 03:04:36;;;;;;;;;;;;;;;;;;1904563;28;7392;-67
2022/04/01 03:05:37;;;;;;;;;;;;;;;;;;1904317;28;7037;-69
2022/04/01 03:06:36;;;;;;;;;;;;;;;;;;1897250;28;8302;-66
2022/04/01 03:07:33;;;;;;;;;;;;;;;;;;1900820;28;8070;-71
2022/04/01 03:08:31;;;;;;;;;;;;;;;;;;1901471;28;8162;-68
2022/04/01 03:09:30;;;;;;;;;;;;;;;;;;1903714;28;7006;-69
2022/04/01 03:10:30;;;;;;;;;;;;;;;;;;1904355;28;7113;-68
2022/04/01 03:11:28;;;;;;;;;;;;;;;;;;1903508;28;7384;-68
2022/04/01 03:12:25;;;;;;;;;;;;;;;;;;1904736;28;7158;-67
2022/04/01 03:13:23;;;;;;;;;;;;;;;;;;1903907;28;7009;-69
2022/04/01 03:14:20;;;;;;;;;;;;;;;;;;1903133;28;7013;-67
2022/04/01 03:15:17;;;;;;;;;;;;;;;;;;1904151;28;8019;-69
2022/04/01 03:16:15;;;;;;;;;;;;;;;;;;1904734;28;7123;-67
2022/04/01 03:17:12;;;;;;;;;;;;;;;;;;1904544;28;8501;-68
2022/04/01 03:18:10;;;;;;;;;;;;;;;;;;1904137;28;8039;-67
2022/04/01 03:19:09;;;;;;;;;;;;;;;;;;1904445;28;7994;-69
2022/04/01 03:20:12;;;;;;;;;;;;;;;;;;1904278;28;7005;-67
2022/04/01 03:21:10;;;;;;;;;;;;;;;;;;1904938;28;7092;-70
2022/04/01 03:22:07;;;;;;;;;;;;;;;;;;1904525;28;7021;-70
2022/04/01 03:23:06;;;;;;;;;;;;;;;;;;1902775;28;7092;-67
2022/04/01 03:24:04;;;;;;;;;;;;;;;;;;1903585;28;7396;-68
2022/04/01 03:25:02;;;;;;;;;;;;;;;;;;1904786;28;7149;-69
2022/04/01 03:26:00;;;;;;;;;;;;;;;;;;1904309;28;7061;-67
2022/04/01 03:26:57;;;;;;;;;;;;;;;;;;1903976;28;7109;-70
2022/04/01 03:27:55;;;;;;;;;;;;;;;;;;1904167;28;7522;-67
2022/04/01 03:28:52;;;;;;;;;;;;;;;;;;1904315;28;7092;-67
2022/04/01 03:29:49;;;;;;;;;;;;;;;;;;1904317;28;7105;-69
2022/04/01 03:30:50;;;;;;;;;;;;;;;;;;1904497;28;7034;-67
2022/04/01 03:31:51;;;;;;;;;;;;;;;;;;1904503;28;7152;-66
2022/04/01 03:32:49;;;;;;;;;;;;;;;;;;1904313;28;7042;-69
2022/04/01 03:33:46;;;;;;;;;;;;;;;;;;1897304;28;7998;-69
2022/04/01 03:34:44;;;;;;;;;;;;;;;;;;1902564;28;7145;-70
2022/04/01 03:35:41;;;;;;;;;;;;;;;;;;1904043;28;7006;-68
2022/04/01 03:36:39;;;;;;;;;;;;;;;;;;1903724;28;7005;-68
2022/04/01 03:37:36;;;;;;;;;;;;;;;;;;1904475;28;7002;-69
2022/04/01 03:38:34;;;;;;;;;;;;;;;;;;1904225;28;7105;-70
2022/04/01 03:39:32;;;;;;;;;;;;;;;;;;1904296;28;7084;-67
2022/04/01 03:40:31;;;;;;;;;;;;;;;;;;1903912;28;7050;-68
2022/04/01 03:41:30;;;;;;;;;;;;;;;;;;1903976;28;7042;-67
2022/04/01 03:42:32;;;;;;;;;;;;;;;;;;1902912;28;7152;-67
2022/04/01 03:43:29;;;;;;;;;;;;;;;;;;1903968;28;7144;-69
2022/04/01 03:44:28;;;;;;;;;;;;;;;;;;1904438;28;7006;-68
2022/04/01 03:45:26;;;;;;;;;;;;;;;;;;1904427;28;7104;-68
2022/04/01 03:46:29;;;;;;;;;;;;;;;;;;1904718;28;7340;-67
2022/04/01 03:47:31;;;;;;;;;;;;;;;;;;1904579;28;7096;-68
2022/04/01 03:48:35;;;;;;;;;;;;;;;;;;1901362;28;9035;-67
2022/04/01 03:49:33;;;;;;;;;;;;;;;;;;1901898;28;7005;-69
2022/04/01 03:50:32;;;;;;;;;;;;;;;;;;1903473;28;8023;-67
2022/04/01 03:51:31;;;;;;;;;;;;;;;;;;1903624;28;7109;-68
2022/04/01 03:52:31;;;;;;;;;;;;;;;;;;1904174;28;7010;-67
2022/04/01 03:53:29;;;;;;;;;;;;;;;;;;1902686;28;7560;-68
2022/04/01 03:54:28;;;;;;;;;;;;;;;;;;1903568;28;7108;-69
2022/04/01 03:55:30;;;;;;;;;;;;;;;;;;1904405;28;8087;-66
2022/04/01 03:56:31;;;;;;;;;;;;;;;;;;1904322;28;7026;-67
2022/04/01 03:57:37;;;;;;;;;;;;;;;;;;1903875;28;7046;-67
2022/04/01 03:58:35;;;;;;;;;;;;;;;;;;1904586;28;7092;-67
2022/04/01 03:59:41;;;;;;;;;;;;;;;;;;1903839;28;7010;-67
2022/04/01 04:00:40;;;;;;;;;;;;;;;;;;1904655;28;7131;-69
2022/04/01 04:01:38;;;;;;;;;;;;;;;;;;1903862;28;7038;-69
2022/04/01 04:02:38;;;;;;;;;;;;;;;;;;1904127;28;7148;-68
2022/04/01 04:03:38;;;;;;;;;;;;;;;;;;1904002;28;7042;-67
2022/04/01 04:04:38;;;;;;;;;;;;;;;;;;1903960;28;7074;-67
2022/04/01 04:05:38;;;;;;;;;;;;;;;;;;1903955;28;7207;-67
2022/04/01 04:06:39;;;;;;;;;;;;;;;;;;1901400;28;7096;-68
2022/04/01 04:07:39;;;;;;;;;;;;;;;;;;1903194;28;7009;-69
2022/04/01 04:08:37;;;;;;;;;;;;;;;;;;1903596;28;7050;-68
2022/04/01 04:09:37;;;;;;;;;;;;;;;;;;1904583;28;7041;-69
2022/04/01 04:10:35;;;;;;;;;;;;;;;;;;1903603;28;7009;-70
2022/04/01 04:11:33;;;;;;;;;;;;;;;;;;1904172;28;7336;-67
2022/04/01 04:12:33;;;;;;;;;;;;;;;;;;1902635;28;7101;-67
2022/04/01 04:13:31;;;;;;;;;;;;;;;;;;1904098;28;7092;-68
2022/04/01 04:14:28;;;;;;;;;;;;;;;;;;1904211;28;7009;-68
2022/04/01 04:15:27;;;;;;;;;;;;;;;;;;1903974;28;7093;-68
2022/04/01 04:16:45;;;;;;;;;;;;;;;;;;1904369;28;7096;-68
2022/04/01 04:17:46;;;;;;;;;;;;;;;;;;1904395;28;7030;-68
2022/04/01 04:18:49;;;;;;;;;;;;;;;;;;1904589;28;7006;-67
2022/04/01 04:19:49;;;;;;;;;;;;;;;;;;1896108;28;7029;-68
2022/04/01 04:21:04;;;;;;;;;;;;;;;;;;1903775;28;7096;-67
2022/04/01 04:22:09;;;;;;;;;;;;;;;;;;1902354;28;7056;-69
2022/04/01 04:23:12;;;;;;;;;;;;;;;;;;1903352;28;7042;-68
2022/04/01 04:24:17;;;;;;;;;;;;;;;;;;1903749;28;7030;-68
2022/04/01 04:25:19;;;;;;;;;;;;;;;;;;1903583;28;7314;-68
2022/04/01 04:26:24;;;;;;;;;;;;;;;;;;1904461;28;7398;-69
2022/04/01 04:27:25;;;;;;;;;;;;;;;;;;1903914;28;7177;-67
2022/04/01 04:28:25;;;;;;;;;;;;;;;;;;1904371;28;7135;-69
2022/04/01 04:29:25;;;;;;;;;;;;;;;;;;1904154;28;7316;-69
2022/04/01 04:30:32;;;;;;;;;;;;;;;;;;1904069;28;7101;-67
2022/04/01 04:31:34;;;;;;;;;;;;;;;;;;1904251;28;7113;-68
2022/04/01 04:32:50;;;;;;;;;;;;;;;;;;1904062;28;7013;-68
2022/04/01 04:33:49;;;;;;;;;;;;;;;;;;1904244;28;7127;-68
2022/04/01 04:35:05;;;;;;;;;;;;;;;;;;1903846;28;8046;-67
2022/04/01 04:36:04;;;;;;;;;;;;;;;;;;1904190;28;8036;-69
2022/04/01 04:37:03;;;;;;;;;;;;;;;;;;1903930;28;7343;-68
2022/04/01 04:38:04;;;;;;;;;;;;;;;;;;1903942;28;8055;-68
2022/04/01 04:39:07;;;;;;;;;;;;;;;;;;1904313;28;7013;-68
2022/04/01 04:40:05;;;;;;;;;;;;;;;;;;1904536;28;7046;-69
2022/04/01 04:41:04;;;;;;;;;;;;;;;;;;1898706;28;7280;-69
2022/04/01 04:42:03;;;;;;;;;;;;;;;;;;1906450;28;7320;-68
2022/04/01 04:43:01;;;;;;;;;;;;;;;;;;1903682;28;7013;-68
2022/04/01 04:43:59;;;;;;;;;;;;;;;;;;1904450;28;7005;-68
2022/04/01 04:44:57;;;;;;;;;;;;;;;;;;1904408;28;7010;-70
2022/04/01 04:45:58;;;;;;;;;;;;;;;;;;1903822;28;7005;-69
2022/04/01 04:46:59;;;;;;;;;;;;;;;;;;1904612;28;7120;-69
2022/04/01 04:47:57;;;;;;;;;;;;;;;;;;1903992;28;8047;-68
2022/04/01 04:48:55;;;;;;;;;;;;;;;;;;1904508;28;7108;-67
2022/04/01 04:49:54;;;;;;;;;;;;;;;;;;1904219;28;7188;-68
2022/04/01 04:50:52;;;;;;;;;;;;;;;;;;1902849;28;7092;-68
2022/04/01 04:51:52;;;;;;;;;;;;;;;;;;1904547;28;7141;-67
2022/04/01 04:52:51;;;;;;;;;;;;;;;;;;1904527;28;7789;-67
2022/04/01 04:53:49;;;;;;;;;;;;;;;;;;1903929;28;7112;-68
2022/04/01 04:54:50;;;;;;;;;;;;;;;;;;1904200;28;7311;-66
2022/04/01 04:55:49;;;;;;;;;;;;;;;;;;1903994;28;7046;-67
2022/04/01 04:56:48;;;;;;;;;;;;;;;;;;1904168;28;7417;-68
2022/04/01 04:57:46;;;;;;;;;;;;;;;;;;1896375;28;7139;-69
2022/04/01 04:58:44;;;;;;;;;;;;;;;;;;1895507;28;7018;-68
2022/04/01 04:59:42;;;;;;;;;;;;;;;;;;1896593;28;7009;-68
2022/04/01 05:00:45;;;;;;;;;;;;;;;;;;1896530;28;7124;-67
2022/04/01 05:01:49;;;;;;;;;;;;;;;;;;1896599;28;7050;-68
2022/04/01 05:02:57;;;;;;;;;;;;;;;;;;1896987;28;7005;-69
2022/04/01 05:03:54;;;;;;;;;;;;;;;;;;1898094;28;7054;-68
2022/04/01 05:05:01;;;;;;;;;;;;;;;;;;1898099;28;7093;-69
2022/04/01 05:05:59;;;;;;;;;;;;;;;;;;1898020;28;7006;-67
2022/04/01 05:07:19;;;;;;;;;;;;;;;;;;1897963;28;7037;-70
2022/04/01 05:08:28;;;;;;;;;;;;;;;;;;1895678;28;7397;-66
2022/04/01 05:09:29;;;;;;;;;;;;;;;;;;1897762;28;7005;-65
2022/04/01 05:10:29;;;;;;;;;;;;;;;;;;1897682;28;7026;-68
2022/04/01 05:11:51;;;;;;;;;;;;;;;;;;1897637;28;7002;-70
2022/04/01 05:12:49;;;;;;;;;;;;;;;;;;1896389;28;7343;-68
2022/04/01 05:14:13;;;;;;;;;;;;;;;;;;1897524;28;7014;-67
2022/04/01 05:15:18;;;;;;;;;;;;;;;;;;1895256;28;7009;-67
2022/04/01 05:16:22;;;;;;;;;;;;;;;;;;1898275;28;7009;-70
2022/04/01 05:17:35;;;;;;;;;;;;;;;;;;1897611;28;7021;-69
2022/04/01 05:18:52;;;;;;;;;;;;;;;;;;1897951;28;7017;-69
2022/04/01 05:19:57;;;;;;;;;;;;;;;;;;1897581;28;7096;-69
2022/04/01 05:20:59;;;;;;;;;;;;;;;;;;1897403;28;7038;-69
2022/04/01 05:22:00;;;;;;;;;;;;;;;;;;1897591;28;7420;-69
2022/04/01 05:22:57;;;;;;;;;;;;;;;;;;1897526;28;7006;-69
2022/04/01 05:24:00;;;;;;;;;;;;;;;;;;1897695;28;7030;-70
2022/04/01 05:25:00;;;;;;;;;;;;;;;;;;1897695;28;7042;-67
2022/04/01 05:26:05;;;;;;;;;;;;;;;;;;1898198;28;8029;-69
2022/04/01 05:27:05;;;;;;;;;;;;;;;;;;1897788;28;7006;-67
2022/04/01 05:28:04;;;;;;;;;;;;;;;;;;1896919;28;7117;-69
2022/04/01 05:29:02;;;;;;;;;;;;;;;;;;1897228;28;7021;-69
2022/04/01 05:30:12;;;;;;;;;;;;;;;;;;1897365;28;8107;-68
2022/04/01 05:31:30;;;;;;;;;;;;;;;;;;1898179;28;7104;-69
2022/04/01 05:32:31;;;;;;;;;;;;;;;;;;1896942;28;7013;-68
2022/04/01 05:33:38;;;;;;;;;;;;;;;;;;1897439;28;7027;-68
2022/04/01 05:34:39;;;;;;;;;;;;;;;;;;1897915;28;8049;-69
2022/04/01 05:35:38;;;;;;;;;;;;;;;;;;1897432;28;7450;-68
2022/04/01 05:36:37;;;;;;;;;;;;;;;;;;1890252;28;7010;-69
2022/04/01 05:37:35;;;;;;;;;;;;;;;;;;1897304;28;7064;-67
2022/04/01 05:38:34;;;;;;;;;;;;;;;;;;1893957;28;7162;-67
2022/04/01 05:39:33;;;;;;;;;;;;;;;;;;1895765;28;8481;-66
2022/04/01 05:40:31;;;;;;;;;;;;;;;;;;1897908;28;7373;-70
2022/04/01 05:41:29;;;;;;;;;;;;;;;;;;1897828;28;7109;-67
2022/04/01 05:42:27;;;;;;;;;;;;;;;;;;1897048;28;9411;-67
2022/04/01 05:43:28;;;;;;;;;;;;;;;;;;1897359;28;7041;-68
2022/04/01 05:44:26;;;;;;;;;;;;;;;;;;1890252;28;7336;-68
2022/04/01 05:45:24;;;;;;;;;;;;;;;;;;1889306;28;7006;-68
2022/04/01 05:46:24;;;;;;;;;;;;;;;;;;1895059;28;7043;-68
2022/04/01 05:47:24;;;;;;;;;;;;;;;;;;1897458;28;7093;-69
2022/04/01 05:48:22;;;;;;;;;;;;;;;;;;1898807;28;7009;-68
2022/04/01 05:49:21;;;;;;;;;;;;;;;;;;1898350;28;7113;-67
2022/04/01 05:50:19;;;;;;;;;;;;;;;;;;1897752;28;7010;-70
2022/04/01 05:51:18;;;;;;;;;;;;;;;;;;1897594;28;7093;-69
2022/04/01 05:52:15;;;;;;;;;;;;;;;;;;1897412;28;7289;-67
2022/04/01 05:53:14;;;;;;;;;;;;;;;;;;1897890;28;7025;-68
2022/04/01 05:54:12;;;;;;;;;;;;;;;;;;1897620;28;7121;-68
2022/04/01 05:55:11;;;;;;;;;;;;;;;;;;1897466;28;7030;-69
2022/04/01 05:56:09;;;;;;;;;;;;;;;;;;1898156;28;7030;-69
2022/04/01 05:57:08;;;;;;;;;;;;;;;;;;1900602;28;7013;-69
2022/04/01 05:58:06;;;;;;;;;;;;;;;;;;1909148;28;7017;-68
2022/04/01 05:59:04;;;;;;;;;;;;;;;;;;1912712;28;7009;-68
2022/04/01 06:00:05;;;;;;;;;;;;;;;;;;1912678;28;7379;-66
2022/04/01 06:01:02;;;;;;;;;;;;;;;;;;1910580;28;7096;-68
2022/04/01 06:02:09;;;;;;;;;;;;;;;;;;1912275;28;7096;-69
2022/04/01 06:03:06;;;;;;;;;;;;;;;;;;1911158;28;7049;-69
2022/04/01 06:04:16;;;;;;;;;;;;;;;;;;1912313;28;7096;-68
2022/04/01 06:05:26;;;;;;;;;;;;;;;;;;1912258;28;7005;-68
2022/04/01 06:06:38;;;;;;;;;;;;;;;;;;1912396;28;7005;-70
2022/04/01 06:07:44;;;;;;;;;;;;;;;;;;1912345;28;7116;-69
2022/04/01 06:08:44;;;;;;;;;;;;;;;;;;1912478;28;7038;-68
2022/04/01 06:10:00;;;;;;;;;;;;;;;;;;1912303;28;7017;-69
2022/04/01 06:10:57;;;;;;;;;;;;;;;;;;1912190;28;8196;-68
2022/04/01 06:12:01;;;;;;;;;;;;;;;;;;1911112;28;7096;-68
2022/04/01 06:13:17;;;;;;;;;;;;;;;;;;1912392;28;7348;-67
2022/04/01 06:14:26;;;;;;;;;;;;;;;;;;1911865;28;7002;-69
2022/04/01 06:15:47;;;;;;;;;;;;;;;;;;1910756;28;7089;-68
2022/04/01 06:16:52;;;;;;;;;;;;;;;;;;1911904;28;7009;-67
2022/04/01 06:17:56;;;;;;;;;;;;;;;;;;1911976;28;7116;-68
2022/04/01 06:19:06;;;;;;;;;;;;;;;;;;1911734;28;7006;-68
2022/04/01 06:20:07;;;;;;;;;;;;;;;;;;1912099;28;7097;-68
2022/04/01 06:21:07;;;;;;;;;;;;;;;;;;1910849;28;7283;-67
2022/04/01 06:22:06;;;;;;;;;;;;;;;;;;1912161;28;7093;-68
2022/04/01 06:23:14;;;;;;;;;;;;;;;;;;1912558;28;7693;-69
2022/04/01 06:24:23;;;;;;;;;;;;;;;;;;1911348;28;7009;-70
2022/04/01 06:25:27;;;;;;;;;;;;;;;;;;1912108;28;8008;-69
2022/04/01 06:26:27;;;;;;;;;;;;;;;;;;1912023;28;7092;-68
2022/04/01 06:27:47;;;;;;;;;;;;;;;;;;1912483;28;7339;-67
2022/04/01 06:29:08;;;;;;;;;;;;;;;;;;1899512;28;7006;-69
2022/04/01 06:30:13;;;;;;;;;;;;;;;;;;1901727;28;7043;-68
2022/04/01 06:31:12;;;;;;;;;;;;;;;;;;1912021;28;7021;-68
2022/04/01 06:32:21;;;;;;;;;;;;;;;;;;1912084;28;7009;-69
2022/04/01 06:33:18;;;;;;;;;;;;;;;;;;1912276;28;8034;-67
2022/04/01 06:34:21;;;;;;;;;;;;;;;;;;1911951;28;7104;-69
2022/04/01 06:35:25;;;;;;;;;;;;;;;;;;1912719;28;8014;-70
2022/04/01 06:36:34;;;;;;;;;;;;;;;;;;1912045;28;7109;-67
2022/04/01 06:37:41;;;;;;;;;;;;;;;;;;1911817;28;7001;-68
2022/04/01 06:38:40;;;;;;;;;;;;;;;;;;1912237;28;7017;-69
2022/04/01 06:39:57;;;;;;;;;;;;;;;;;;1912609;28;7125;-68
2022/04/01 06:40:54;;;;;;;;;;;;;;;;;;1912288;28;7041;-66
2022/04/01 06:41:57;;;;;;;;;;;;;;;;;;1911964;28;7100;-67
2022/04/01 06:42:55;;;;;;;;;;;;;;;;;;1912576;28;7089;-69
2022/04/01 06:43:52;;;;;;;;;;;;;;;;;;1911673;28;7188;-66
2022/04/01 06:44:50;;;;;;;;;;;;;;;;;;1911661;28;7092;-68
2022/04/01 06:45:47;;;;;;;;;;;;;;;;;;1911642;28;7046;-67
2022/04/01 06:46:45;;;;;;;;;;;;;;;;;;1910984;28;7006;-67
2022/04/01 06:47:44;;;;;;;;;;;;;;;;;;1912281;28;7006;-68
2022/04/01 06:48:41;;;;;;;;;;;;;;;;;;1912203;28;7117;-68
2022/04/01 06:49:39;;;;;;;;;;;;;;;;;;1912618;28;7139;-67
2022/04/01 06:50:37;;;;;;;;;;;;;;;;;;1912206;28;7006;-67
2022/04/01 06:51:36;;;;;;;;;;;;;;;;;;1912024;28;7009;-70
2022/04/01 06:52:33;;;;;;;;;;;;;;;;;;1911999;28;8106;-69
2022/04/01 06:53:31;;;;;;;;;;;;;;;;;;1912199;28;7312;-68
2022/04/01 06:54:28;;;;;;;;;;;;;;;;;;1912041;28;7100;-66
2022/04/01 06:55:26;;;;;;;;;;;;;;;;;;1911954;28;7002;-67
2022/04/01 06:56:23;;;;;;;;;;;;;;;;;;1912259;28;7005;-67
2022/04/01 06:57:21;;;;;;;;;;;;;;;;;;1912944;28;7001;-67
2022/04/01 06:58:18;;;;;;;;;;;;;;;;;;1911946;28;7005;-68
2022/04/01 06:59:16;;;;;;;;;;;;;;;;;;1911787;28;7006;-67
2022/04/01 07:00:14;;;;;;;;;;;;;;;;;;1912315;28;7061;-68
2022/04/01 07:01:12;;;;;;;;;;;;;;;;;;1912214;28;7112;-71
2022/04/01 07:02:10;;;;;;;;;;;;;;;;;;1911999;28;7092;-66